Time;durP1;ratioP1;P1;durP2;ratioP2;P2;SDS_P1;SDS_P2;PMS_P1;PMS_P2;Temp;Humidity;BMP_temperature;BMP_pressure;BME280_temperature;BME280_humidity;BME280_pressure;Samples;Min_cycle;Max_cycle;Signal;HPM_P1;HPM_P2
2023/12/04 00:01:00;;;;;;;;;;;;;;;;;;5117627;27;1209;-68
2023/12/04 00:03:25;;;;;;;;;;;;;;;;;;5136036;27;824;-68
2023/12/04 00:05:51;;;;;;;;;;;;;;;;;;5117882;27;1049;-67
2023/12/04 00:08:17;;;;;;;;;;;;;;;;;;5117306;27;950;-68
2023/12/04 00:10:42;;;;;;;;;;;;;;;;;;5135951;27;1006;-68
2023/12/04 00:13:07;;;;;;;;;;;;;;;;;;5116907;27;1291;-69
2023/12/04 00:15:33;;;;;;;;;;;;;;;;;;5136045;27;1073;-68
2023/12/04 00:17:58;;;;;;;;;;;;;;;;;;5135794;27;1919;-68
2023/12/04 00:20:23;;;;;;;;;;;;;;;;;;5117671;27;1348;-68
2023/12/04 00:22:49;;;;;;;;;;;;;;;;;;5131932;27;1285;-68
2023/12/04 00:25:14;;;;;;;;;;;;;;;;;;5112864;27;1272;-68
2023/12/04 00:27:39;;;;;;;;;;;;;;;;;;5113511;27;1231;-68
2023/12/04 00:30:05;;;;;;;;;;;;;;;;;;5131812;27;1183;-68
2023/12/04 00:32:31;;;;;;;;;;;;;;;;;;5130764;27;1179;-69
2023/12/04 00:34:56;;;;;;;;;;;;;;;;;;5135207;27;1140;-68
2023/12/04 00:37:22;;;;;;;;;;;;;;;;;;5136016;27;1914;-67
2023/12/04 00:39:47;;;;;;;;;;;;;;;;;;5116963;27;1511;-68
2023/12/04 00:42:13;;;;;;;;;;;;;;;;;;5135490;27;999;-68
2023/12/04 00:44:38;;;;;;;;;;;;;;;;;;5135005;27;919;-68
2023/12/04 00:47:03;;;;;;;;;;;;;;;;;;5135387;27;1010;-68
2023/12/04 00:49:29;;;;;;;;;;;;;;;;;;5116680;27;1184;-68
2023/12/04 00:51:54;;;;;;;;;;;;;;;;;;5117191;27;1242;-68
2023/12/04 00:54:19;;;;;;;;;;;;;;;;;;5099893;28;1201;-68
2023/12/04 00:56:44;;;;;;;;;;;;;;;;;;5134992;27;1968;-68
2023/12/04 00:59:10;;;;;;;;;;;;;;;;;;5099944;28;1342;-68
2023/12/04 01:01:36;;;;;;;;;;;;;;;;;;5116487;28;1250;-67
2023/12/04 01:04:01;;;;;;;;;;;;;;;;;;5134780;27;888;-69
2023/12/04 01:06:26;;;;;;;;;;;;;;;;;;5117200;28;1262;-68
2023/12/04 01:08:52;;;;;;;;;;;;;;;;;;5116729;28;887;-67
2023/12/04 01:11:19;;;;;;;;;;;;;;;;;;5135281;27;974;-68
2023/12/04 01:13:44;;;;;;;;;;;;;;;;;;5135092;27;910;-68
2023/12/04 01:16:09;;;;;;;;;;;;;;;;;;5116614;28;1363;-68
2023/12/04 01:18:35;;;;;;;;;;;;;;;;;;5135475;27;1893;-68
2023/12/04 01:21:00;;;;;;;;;;;;;;;;;;5134777;27;1022;-68
2023/12/04 01:23:26;;;;;;;;;;;;;;;;;;5134912;27;966;-68
2023/12/04 01:25:51;;;;;;;;;;;;;;;;;;5118133;27;1300;-68
2023/12/04 01:28:16;;;;;;;;;;;;;;;;;;5119768;27;1200;-68
2023/12/04 01:30:41;;;;;;;;;;;;;;;;;;5139002;27;796;-68
2023/12/04 01:33:08;;;;;;;;;;;;;;;;;;5138971;27;812;-68
2023/12/04 01:35:33;;;;;;;;;;;;;;;;;;5120492;27;876;-67
2023/12/04 01:37:58;;;;;;;;;;;;;;;;;;5120391;27;1958;-67
2023/12/04 01:40:24;;;;;;;;;;;;;;;;;;5138532;27;899;-68
2023/12/04 01:42:49;;;;;;;;;;;;;;;;;;5138748;27;875;-67
2023/12/04 01:45:14;;;;;;;;;;;;;;;;;;5138253;27;911;-68
2023/12/04 01:47:39;;;;;;;;;;;;;;;;;;5138757;27;1049;-67
2023/12/04 01:50:06;;;;;;;;;;;;;;;;;;5138694;27;915;-68
2023/12/04 01:52:31;;;;;;;;;;;;;;;;;;5120343;27;979;-67
2023/12/04 01:54:57;;;;;;;;;;;;;;;;;;5139192;27;858;-73
2023/12/04 01:57:22;;;;;;;;;;;;;;;;;;5120000;27;1905;-72
2023/12/04 01:59:47;;;;;;;;;;;;;;;;;;5138421;27;859;-73
2023/12/04 02:02:13;;;;;;;;;;;;;;;;;;5138408;27;840;-73
2023/12/04 02:04:38;;;;;;;;;;;;;;;;;;5120095;27;971;-72
2023/12/04 02:07:04;;;;;;;;;;;;;;;;;;5138373;27;949;-72
2023/12/04 02:09:30;;;;;;;;;;;;;;;;;;5120298;27;922;-73
2023/12/04 02:11:56;;;;;;;;;;;;;;;;;;5138743;27;883;-73
2023/12/04 02:14:21;;;;;;;;;;;;;;;;;;5138464;27;872;-72
2023/12/04 02:16:47;;;;;;;;;;;;;;;;;;5138827;27;1942;-72
2023/12/04 02:19:13;;;;;;;;;;;;;;;;;;5138737;27;848;-73
2023/12/04 02:21:38;;;;;;;;;;;;;;;;;;5138185;27;835;-73
2023/12/04 02:24:03;;;;;;;;;;;;;;;;;;5138167;27;855;-73
2023/12/04 02:26:34;;;;;;;;;;;;;;;;;;5137855;27;1222;-72
2023/12/04 02:29:04;;;;;;;;;;;;;;;;;;5119548;27;1210;-72
2023/12/04 02:31:31;;;;;;;;;;;;;;;;;;5137532;27;1112;-72
2023/12/04 02:33:57;;;;;;;;;;;;;;;;;;5138145;27;855;-73
2023/12/04 02:36:24;;;;;;;;;;;;;;;;;;5137029;27;859;-73
2023/12/04 02:38:50;;;;;;;;;;;;;;;;;;5137760;27;1964;-73
2023/12/04 02:41:17;;;;;;;;;;;;;;;;;;5118980;27;1227;-73
2023/12/04 02:43:42;;;;;;;;;;;;;;;;;;5137544;27;915;-72
2023/12/04 02:46:07;;;;;;;;;;;;;;;;;;5098772;27;1275;-73
2023/12/04 02:48:32;;;;;;;;;;;;;;;;;;5137291;27;860;-73
2023/12/04 02:50:58;;;;;;;;;;;;;;;;;;5137046;27;1013;-73
2023/12/04 02:53:23;;;;;;;;;;;;;;;;;;5137145;27;828;-73
2023/12/04 02:55:48;;;;;;;;;;;;;;;;;;5101773;27;1116;-72
2023/12/04 02:58:14;;;;;;;;;;;;;;;;;;5118591;27;1902;-72
2023/12/04 03:00:39;;;;;;;;;;;;;;;;;;5137321;27;852;-72
2023/12/04 03:03:05;;;;;;;;;;;;;;;;;;5118953;27;915;-73
2023/12/04 03:05:30;;;;;;;;;;;;;;;;;;5136547;27;899;-73
2023/12/04 03:07:55;;;;;;;;;;;;;;;;;;5118205;27;1451;-72
2023/12/04 03:10:21;;;;;;;;;;;;;;;;;;5137199;27;934;-73
2023/12/04 03:12:46;;;;;;;;;;;;;;;;;;5118220;27;1257;-73
2023/12/04 03:15:12;;;;;;;;;;;;;;;;;;5118230;27;1546;-72
2023/12/04 03:17:38;;;;;;;;;;;;;;;;;;5136939;27;1907;-72
2023/12/04 03:20:04;;;;;;;;;;;;;;;;;;5136700;27;1089;-72
2023/12/04 03:22:30;;;;;;;;;;;;;;;;;;5118437;27;1222;-73
2023/12/04 03:24:55;;;;;;;;;;;;;;;;;;5118308;27;931;-72
2023/12/04 03:27:20;;;;;;;;;;;;;;;;;;5136462;27;991;-73
2023/12/04 03:29:46;;;;;;;;;;;;;;;;;;5136436;27;887;-73
2023/12/04 03:32:11;;;;;;;;;;;;;;;;;;5136847;27;914;-72
2023/12/04 03:34:36;;;;;;;;;;;;;;;;;;5136654;27;910;-72
2023/12/04 03:37:01;;;;;;;;;;;;;;;;;;5118400;27;1909;-72
2023/12/04 03:39:30;;;;;;;;;;;;;;;;;;5118141;27;910;-73
2023/12/04 03:41:55;;;;;;;;;;;;;;;;;;5118021;27;942;-72
2023/12/04 03:44:20;;;;;;;;;;;;;;;;;;5136125;27;832;-72
2023/12/04 03:46:45;;;;;;;;;;;;;;;;;;5136177;27;903;-72
2023/12/04 03:49:11;;;;;;;;;;;;;;;;;;5117473;27;1315;-72
2023/12/04 03:51:36;;;;;;;;;;;;;;;;;;5117555;27;1261;-72
2023/12/04 03:54:01;;;;;;;;;;;;;;;;;;5100574;27;1271;-73
2023/12/04 03:56:27;;;;;;;;;;;;;;;;;;5117232;27;973;-73
2023/12/04 03:58:52;;;;;;;;;;;;;;;;;;5117553;27;1902;-73
2023/12/04 04:01:17;;;;;;;;;;;;;;;;;;5117271;27;1365;-73
2023/12/04 04:03:43;;;;;;;;;;;;;;;;;;5136067;27;918;-73
2023/12/04 04:06:08;;;;;;;;;;;;;;;;;;5136231;27;808;-73
2023/12/04 04:08:33;;;;;;;;;;;;;;;;;;5135691;27;903;-73
2023/12/04 04:10:59;;;;;;;;;;;;;;;;;;5135862;27;934;-73
2023/12/04 04:13:24;;;;;;;;;;;;;;;;;;5135978;27;1154;-73
2023/12/04 04:15:49;;;;;;;;;;;;;;;;;;5117550;27;1391;-73
2023/12/04 04:18:14;;;;;;;;;;;;;;;;;;5135779;27;1893;-73
2023/12/04 04:20:40;;;;;;;;;;;;;;;;;;5117385;27;1007;-73
2023/12/04 04:23:05;;;;;;;;;;;;;;;;;;5135586;27;958;-73
2023/12/04 04:25:30;;;;;;;;;;;;;;;;;;5100556;27;1481;-73
2023/12/04 04:27:56;;;;;;;;;;;;;;;;;;5135379;27;978;-73
2023/12/04 04:30:21;;;;;;;;;;;;;;;;;;5135563;27;666;-73
2023/12/04 04:32:46;;;;;;;;;;;;;;;;;;5100373;27;1283;-72
2023/12/04 04:35:11;;;;;;;;;;;;;;;;;;5117047;27;1310;-72
2023/12/04 04:37:37;;;;;;;;;;;;;;;;;;5135193;27;1953;-73
2023/12/04 04:40:02;;;;;;;;;;;;;;;;;;5135548;27;765;-72
2023/12/04 04:42:28;;;;;;;;;;;;;;;;;;5117321;27;872;-73
2023/12/04 04:44:53;;;;;;;;;;;;;;;;;;5116719;28;1437;-73
2023/12/04 04:47:18;;;;;;;;;;;;;;;;;;5135242;27;907;-73
2023/12/04 04:49:44;;;;;;;;;;;;;;;;;;5116670;27;856;-73
2023/12/04 04:52:09;;;;;;;;;;;;;;;;;;5135152;27;966;-72
2023/12/04 04:54:35;;;;;;;;;;;;;;;;;;5100158;28;1526;-73
2023/12/04 04:57:00;;;;;;;;;;;;;;;;;;5134895;28;1901;-74
2023/12/04 04:59:27;;;;;;;;;;;;;;;;;;5137078;27;880;-73
2023/12/04 05:01:52;;;;;;;;;;;;;;;;;;5141611;27;1010;-73
2023/12/04 05:04:17;;;;;;;;;;;;;;;;;;5141793;27;915;-73
2023/12/04 05:06:42;;;;;;;;;;;;;;;;;;5141550;27;946;-73
2023/12/04 05:09:08;;;;;;;;;;;;;;;;;;5106833;27;1214;-73
2023/12/04 05:11:33;;;;;;;;;;;;;;;;;;5141789;27;840;-72
2023/12/04 05:13:59;;;;;;;;;;;;;;;;;;5106352;27;1105;-72
2023/12/04 05:16:24;;;;;;;;;;;;;;;;;;5142210;27;1010;-73
2023/12/04 05:18:49;;;;;;;;;;;;;;;;;;5142135;27;1897;-73
2023/12/04 05:21:14;;;;;;;;;;;;;;;;;;5123854;27;1088;-73
2023/12/04 05:23:40;;;;;;;;;;;;;;;;;;5141590;27;994;-73
2023/12/04 05:26:08;;;;;;;;;;;;;;;;;;5124151;27;844;-73
2023/12/04 05:28:34;;;;;;;;;;;;;;;;;;5141881;27;839;-73
2023/12/04 05:30:59;;;;;;;;;;;;;;;;;;5106489;27;1430;-73
2023/12/04 05:33:24;;;;;;;;;;;;;;;;;;5141670;27;1081;-72
2023/12/04 05:35:53;;;;;;;;;;;;;;;;;;5140984;27;940;-72
2023/12/04 05:38:18;;;;;;;;;;;;;;;;;;5123238;27;1897;-73
2023/12/04 05:40:43;;;;;;;;;;;;;;;;;;5123285;27;1107;-73
2023/12/04 05:43:12;;;;;;;;;;;;;;;;;;5141582;27;828;-73
2023/12/04 05:45:38;;;;;;;;;;;;;;;;;;5141743;27;808;-74
2023/12/04 05:48:04;;;;;;;;;;;;;;;;;;5141506;27;776;-73
2023/12/04 05:50:29;;;;;;;;;;;;;;;;;;5141129;27;835;-73
2023/12/04 05:52:54;;;;;;;;;;;;;;;;;;5141646;27;923;-73
2023/12/04 05:55:20;;;;;;;;;;;;;;;;;;5123435;27;899;-74
2023/12/04 05:57:45;;;;;;;;;;;;;;;;;;5141689;27;1901;-73
2023/12/04 06:00:12;;;;;;;;;;;;;;;;;;5123055;27;1316;-75
2023/12/04 06:02:38;;;;;;;;;;;;;;;;;;5141132;27;899;-72
2023/12/04 06:05:03;;;;;;;;;;;;;;;;;;5122745;27;1495;-72
2023/12/04 06:07:28;;;;;;;;;;;;;;;;;;5122785;27;891;-73
2023/12/04 06:09:54;;;;;;;;;;;;;;;;;;5122745;27;859;-73
2023/12/04 06:12:19;;;;;;;;;;;;;;;;;;5119025;27;1359;-68
2023/12/04 06:14:44;;;;;;;;;;;;;;;;;;5138109;27;931;-69
2023/12/04 06:17:10;;;;;;;;;;;;;;;;;;5103105;27;1947;-68
2023/12/04 06:19:35;;;;;;;;;;;;;;;;;;5119535;27;1230;-69
2023/12/04 06:22:00;;;;;;;;;;;;;;;;;;5138459;27;1022;-68
2023/12/04 06:24:26;;;;;;;;;;;;;;;;;;5137783;27;868;-68
2023/12/04 06:26:51;;;;;;;;;;;;;;;;;;5119058;27;1273;-68
2023/12/04 06:29:17;;;;;;;;;;;;;;;;;;5137590;27;879;-68
2023/12/04 06:31:42;;;;;;;;;;;;;;;;;;5119194;27;1221;-67
2023/12/04 06:34:08;;;;;;;;;;;;;;;;;;5137660;27;966;-68
2023/12/04 06:36:37;;;;;;;;;;;;;;;;;;5137690;27;907;-67
2023/12/04 06:39:04;;;;;;;;;;;;;;;;;;5119330;27;1344;-68
2023/12/04 06:41:29;;;;;;;;;;;;;;;;;;5119127;27;1298;-68
2023/12/04 06:43:55;;;;;;;;;;;;;;;;;;5118784;27;1518;-68
2023/12/04 06:46:20;;;;;;;;;;;;;;;;;;5137158;27;817;-69
2023/12/04 06:48:47;;;;;;;;;;;;;;;;;;5137422;27;836;-69
2023/12/04 06:51:13;;;;;;;;;;;;;;;;;;5137254;27;986;-69
2023/12/04 06:53:38;;;;;;;;;;;;;;;;;;5137688;27;934;-67
2023/12/04 06:56:04;;;;;;;;;;;;;;;;;;5137454;27;864;-72
2023/12/04 06:58:29;;;;;;;;;;;;;;;;;;5136790;27;1905;-72
2023/12/04 07:00:54;;;;;;;;;;;;;;;;;;5118724;27;959;-71
2023/12/04 07:03:20;;;;;;;;;;;;;;;;;;5118560;27;820;-72
2023/12/04 07:05:45;;;;;;;;;;;;;;;;;;5136067;27;919;-71
2023/12/04 07:08:10;;;;;;;;;;;;;;;;;;5136032;27;982;-71
2023/12/04 07:10:35;;;;;;;;;;;;;;;;;;5137042;27;943;-72
2023/12/04 07:13:01;;;;;;;;;;;;;;;;;;5136841;27;984;-72
2023/12/04 07:15:28;;;;;;;;;;;;;;;;;;5136916;27;974;-71
2023/12/04 07:17:53;;;;;;;;;;;;;;;;;;5136865;27;1961;-72
2023/12/04 07:20:19;;;;;;;;;;;;;;;;;;5136849;27;989;-71
2023/12/04 07:22:44;;;;;;;;;;;;;;;;;;5116995;28;1327;-72
2023/12/04 07:25:10;;;;;;;;;;;;;;;;;;5135894;27;856;-71
2023/12/04 07:27:35;;;;;;;;;;;;;;;;;;5118494;27;780;-71
2023/12/04 07:30:00;;;;;;;;;;;;;;;;;;5136378;27;824;-72
2023/12/04 07:32:26;;;;;;;;;;;;;;;;;;5136629;27;1085;-71
2023/12/04 07:34:51;;;;;;;;;;;;;;;;;;5117901;27;1385;-71
2023/12/04 07:37:16;;;;;;;;;;;;;;;;;;5135848;27;1961;-71
2023/12/04 07:39:45;;;;;;;;;;;;;;;;;;5101296;27;1238;-72
2023/12/04 07:42:11;;;;;;;;;;;;;;;;;;5136648;27;844;-72
2023/12/04 07:44:37;;;;;;;;;;;;;;;;;;5136860;27;875;-72
2023/12/04 07:47:02;;;;;;;;;;;;;;;;;;5136522;27;816;-72
2023/12/04 07:49:27;;;;;;;;;;;;;;;;;;5135918;27;954;-70
2023/12/04 07:51:52;;;;;;;;;;;;;;;;;;5136254;27;1076;-72
2023/12/04 07:54:18;;;;;;;;;;;;;;;;;;5100776;27;925;-72
2023/12/04 07:56:43;;;;;;;;;;;;;;;;;;5117522;27;1901;-71
2023/12/04 07:59:09;;;;;;;;;;;;;;;;;;5118320;27;1177;-72
2023/12/04 08:01:34;;;;;;;;;;;;;;;;;;5136424;27;1151;-72
2023/12/04 08:04:00;;;;;;;;;;;;;;;;;;5136089;27;832;-72
2023/12/04 08:06:25;;;;;;;;;;;;;;;;;;5135868;27;894;-70
2023/12/04 08:08:50;;;;;;;;;;;;;;;;;;5117640;27;910;-71
2023/12/04 08:11:16;;;;;;;;;;;;;;;;;;5135203;27;1068;-71
2023/12/04 08:13:41;;;;;;;;;;;;;;;;;;5136234;27;883;-72
2023/12/04 08:16:14;;;;;;;;;;;;;;;;;;5118085;27;824;-72
2023/12/04 08:18:40;;;;;;;;;;;;;;;;;;5135543;27;1893;-72
2023/12/04 08:21:05;;;;;;;;;;;;;;;;;;5135702;27;1022;-72
2023/12/04 08:23:30;;;;;;;;;;;;;;;;;;5135727;27;939;-72
2023/12/04 08:25:56;;;;;;;;;;;;;;;;;;5135562;27;1062;-72
2023/12/04 08:28:21;;;;;;;;;;;;;;;;;;5117196;27;1594;-71
2023/12/04 08:30:47;;;;;;;;;;;;;;;;;;5135861;27;688;-72
2023/12/04 08:33:12;;;;;;;;;;;;;;;;;;5135665;27;879;-71
2023/12/04 08:35:38;;;;;;;;;;;;;;;;;;5116983;27;1235;-72
2023/12/04 08:38:03;;;;;;;;;;;;;;;;;;5135162;27;1905;-72
2023/12/04 08:40:28;;;;;;;;;;;;;;;;;;5117607;27;871;-72
2023/12/04 08:42:53;;;;;;;;;;;;;;;;;;5118973;27;962;-71
2023/12/04 08:45:19;;;;;;;;;;;;;;;;;;5136111;27;820;-72
2023/12/04 08:47:44;;;;;;;;;;;;;;;;;;5135492;27;840;-69
2023/12/04 08:50:09;;;;;;;;;;;;;;;;;;5135735;27;907;-70
2023/12/04 08:52:35;;;;;;;;;;;;;;;;;;5135529;27;898;-70
2023/12/04 08:55:01;;;;;;;;;;;;;;;;;;5117259;28;1140;-71
2023/12/04 08:57:26;;;;;;;;;;;;;;;;;;5117149;28;1959;-70
2023/12/04 08:59:51;;;;;;;;;;;;;;;;;;5135266;28;840;-69
2023/12/04 09:02:17;;;;;;;;;;;;;;;;;;5135007;28;895;-69
2023/12/04 09:04:43;;;;;;;;;;;;;;;;;;5134951;28;832;-69
2023/12/04 09:07:08;;;;;;;;;;;;;;;;;;5134338;28;847;-69
2023/12/04 09:09:34;;;;;;;;;;;;;;;;;;5134248;28;914;-69
2023/12/04 09:12:02;;;;;;;;;;;;;;;;;;5135311;28;851;-69
2023/12/04 09:14:27;;;;;;;;;;;;;;;;;;5134896;28;1063;-70
2023/12/04 09:16:55;;;;;;;;;;;;;;;;;;5135401;28;1874;-69
2023/12/04 09:19:20;;;;;;;;;;;;;;;;;;5133096;28;1179;-70
2023/12/04 09:21:46;;;;;;;;;;;;;;;;;;5113806;28;1268;-69
2023/12/04 09:24:13;;;;;;;;;;;;;;;;;;5134207;28;1179;-68
2023/12/04 09:26:43;;;;;;;;;;;;;;;;;;5135063;28;863;-70
2023/12/04 09:29:08;;;;;;;;;;;;;;;;;;5134914;28;844;-70
2023/12/04 09:31:34;;;;;;;;;;;;;;;;;;5134034;28;916;-69
2023/12/04 09:33:59;;;;;;;;;;;;;;;;;;5134846;28;937;-69
2023/12/04 09:36:24;;;;;;;;;;;;;;;;;;5099374;28;1253;-69
2023/12/04 09:38:50;;;;;;;;;;;;;;;;;;5134877;28;1917;-69
2023/12/04 09:41:15;;;;;;;;;;;;;;;;;;5116154;28;1308;-70
2023/12/04 09:43:41;;;;;;;;;;;;;;;;;;5116167;28;1488;-69
2023/12/04 09:46:07;;;;;;;;;;;;;;;;;;5135187;27;951;-68
2023/12/04 09:48:33;;;;;;;;;;;;;;;;;;5138432;27;820;-70
2023/12/04 09:50:58;;;;;;;;;;;;;;;;;;5120069;27;1286;-69
2023/12/04 09:53:26;;;;;;;;;;;;;;;;;;5138536;27;792;-69
2023/12/04 09:55:51;;;;;;;;;;;;;;;;;;5119807;27;1265;-70
2023/12/04 09:58:19;;;;;;;;;;;;;;;;;;5138401;27;1977;-69
2023/12/04 10:00:45;;;;;;;;;;;;;;;;;;5138537;27;899;-68
2023/12/04 10:03:10;;;;;;;;;;;;;;;;;;5138713;27;1065;-68
2023/12/04 10:05:35;;;;;;;;;;;;;;;;;;5138798;27;859;-69
2023/12/04 10:08:00;;;;;;;;;;;;;;;;;;5116043;27;1296;-69
2023/12/04 10:10:26;;;;;;;;;;;;;;;;;;5116217;27;1423;-69
2023/12/04 10:12:51;;;;;;;;;;;;;;;;;;5116902;27;1179;-69
2023/12/04 10:15:17;;;;;;;;;;;;;;;;;;5135093;27;1179;-68
2023/12/04 10:17:43;;;;;;;;;;;;;;;;;;5099416;27;1967;-69
2023/12/04 10:20:12;;;;;;;;;;;;;;;;;;5135861;27;1183;-69
2023/12/04 10:22:51;;;;;;;;;;;;;;;;;;5136000;27;1334;-69
2023/12/04 10:25:18;;;;;;;;;;;;;;;;;;5138058;27;887;-69
2023/12/04 10:27:43;;;;;;;;;;;;;;;;;;5119858;27;884;-69
2023/12/04 10:30:12;;;;;;;;;;;;;;;;;;5119513;27;911;-68
2023/12/04 10:32:40;;;;;;;;;;;;;;;;;;5137867;27;883;-69
2023/12/04 10:35:09;;;;;;;;;;;;;;;;;;5137933;27;824;-69
2023/12/04 10:37:35;;;;;;;;;;;;;;;;;;5103093;27;1907;-69
2023/12/04 10:40:01;;;;;;;;;;;;;;;;;;5119312;27;966;-70
2023/12/04 10:42:27;;;;;;;;;;;;;;;;;;5137276;27;919;-69
2023/12/04 10:44:54;;;;;;;;;;;;;;;;;;5137568;27;855;-68
2023/12/04 10:47:21;;;;;;;;;;;;;;;;;;5137636;27;911;-69
2023/12/04 10:49:48;;;;;;;;;;;;;;;;;;5137296;27;945;-69
2023/12/04 10:52:13;;;;;;;;;;;;;;;;;;5118769;27;1467;-68
2023/12/04 10:54:39;;;;;;;;;;;;;;;;;;5137306;27;1077;-69
2023/12/04 10:57:05;;;;;;;;;;;;;;;;;;5136831;27;1976;-69
2023/12/04 10:59:32;;;;;;;;;;;;;;;;;;5136022;27;1214;-69
2023/12/04 11:02:00;;;;;;;;;;;;;;;;;;5132830;27;1155;-68
2023/12/04 11:04:27;;;;;;;;;;;;;;;;;;5114527;27;1195;-70
2023/12/04 11:06:53;;;;;;;;;;;;;;;;;;5115240;27;1443;-69
2023/12/04 11:09:20;;;;;;;;;;;;;;;;;;5114266;27;1437;-69
2023/12/04 11:11:48;;;;;;;;;;;;;;;;;;5133732;27;1155;-69
2023/12/04 11:14:18;;;;;;;;;;;;;;;;;;5134012;27;1247;-70
2023/12/04 11:16:47;;;;;;;;;;;;;;;;;;5132301;27;1281;-69
2023/12/04 11:19:17;;;;;;;;;;;;;;;;;;5115855;27;1237;-69
2023/12/04 11:21:45;;;;;;;;;;;;;;;;;;5133706;27;1159;-69
2023/12/04 11:24:11;;;;;;;;;;;;;;;;;;5117287;27;1225;-69
2023/12/04 11:26:37;;;;;;;;;;;;;;;;;;5118006;27;1302;-69
2023/12/04 11:29:02;;;;;;;;;;;;;;;;;;5137045;27;977;-69
2023/12/04 11:31:28;;;;;;;;;;;;;;;;;;5136827;27;863;-69
2023/12/04 11:34:00;;;;;;;;;;;;;;;;;;5117962;27;884;-69
2023/12/04 11:36:26;;;;;;;;;;;;;;;;;;5136559;27;836;-69
2023/12/04 11:38:51;;;;;;;;;;;;;;;;;;5117977;27;1893;-68
2023/12/04 11:41:17;;;;;;;;;;;;;;;;;;5136264;27;919;-69
2023/12/04 11:43:43;;;;;;;;;;;;;;;;;;5136159;27;836;-69
2023/12/04 11:46:11;;;;;;;;;;;;;;;;;;5136631;27;855;-70
2023/12/04 11:48:37;;;;;;;;;;;;;;;;;;5117444;27;1474;-70
2023/12/04 11:51:03;;;;;;;;;;;;;;;;;;5136461;27;864;-69
2023/12/04 11:53:28;;;;;;;;;;;;;;;;;;5136789;27;851;-69
2023/12/04 11:55:56;;;;;;;;;;;;;;;;;;5117411;27;1241;-69
2023/12/04 11:58:21;;;;;;;;;;;;;;;;;;5135823;27;1897;-69
2023/12/04 12:00:48;;;;;;;;;;;;;;;;;;5136148;27;851;-69
2023/12/04 12:03:14;;;;;;;;;;;;;;;;;;5136264;27;987;-69
2023/12/04 12:05:40;;;;;;;;;;;;;;;;;;5136354;27;828;-69
2023/12/04 12:08:06;;;;;;;;;;;;;;;;;;5136572;27;1234;-68
2023/12/04 12:10:32;;;;;;;;;;;;;;;;;;5131217;27;1171;-69
2023/12/04 12:12:58;;;;;;;;;;;;;;;;;;5130967;27;1148;-68
2023/12/04 12:15:23;;;;;;;;;;;;;;;;;;5132540;27;1218;-67
2023/12/04 12:17:49;;;;;;;;;;;;;;;;;;5117182;27;1965;-66
2023/12/04 12:20:15;;;;;;;;;;;;;;;;;;5135732;27;959;-67
2023/12/04 12:22:43;;;;;;;;;;;;;;;;;;5135398;27;883;-66
2023/12/04 12:25:08;;;;;;;;;;;;;;;;;;5135648;27;856;-66
2023/12/04 12:27:34;;;;;;;;;;;;;;;;;;5135792;27;824;-66
2023/12/04 12:30:04;;;;;;;;;;;;;;;;;;5117252;27;1351;-67
2023/12/04 12:32:30;;;;;;;;;;;;;;;;;;5135397;27;847;-67
2023/12/04 12:34:55;;;;;;;;;;;;;;;;;;5135770;27;1014;-67
2023/12/04 12:37:21;;;;;;;;;;;;;;;;;;5135859;27;1942;-67
2023/12/04 12:39:50;;;;;;;;;;;;;;;;;;5135352;27;964;-67
2023/12/04 12:42:25;;;;;;;;;;;;;;;;;;5135299;27;919;-67
2023/12/04 12:44:51;;;;;;;;;;;;;;;;;;5134909;27;918;-66
2023/12/04 12:47:16;;;;;;;;;;;;;;;;;;5135166;27;824;-66
2023/12/04 12:49:41;;;;;;;;;;;;;;;;;;5135266;27;883;-66
2023/12/04 12:52:10;;;;;;;;;;;;;;;;;;5135888;27;847;-66
2023/12/04 12:54:42;;;;;;;;;;;;;;;;;;5116983;27;1203;-67
2023/12/04 12:57:08;;;;;;;;;;;;;;;;;;5134863;27;1910;-67
2023/12/04 12:59:34;;;;;;;;;;;;;;;;;;5135045;27;836;-67
2023/12/04 13:02:02;;;;;;;;;;;;;;;;;;5135332;27;848;-67
2023/12/04 13:04:35;;;;;;;;;;;;;;;;;;5135120;27;1028;-67
2023/12/04 13:07:00;;;;;;;;;;;;;;;;;;5135125;28;851;-67
2023/12/04 13:09:26;;;;;;;;;;;;;;;;;;5096302;28;1341;-67
2023/12/04 13:11:52;;;;;;;;;;;;;;;;;;5131604;27;1155;-67
2023/12/04 13:14:17;;;;;;;;;;;;;;;;;;5131601;28;1322;-66
2023/12/04 13:16:42;;;;;;;;;;;;;;;;;;5133094;28;1147;-67
2023/12/04 13:19:08;;;;;;;;;;;;;;;;;;5135126;28;1898;-67
2023/12/04 13:21:33;;;;;;;;;;;;;;;;;;5119477;27;903;-66
2023/12/04 13:23:59;;;;;;;;;;;;;;;;;;5139052;27;856;-67
2023/12/04 13:26:24;;;;;;;;;;;;;;;;;;5120450;27;1444;-68
2023/12/04 13:28:49;;;;;;;;;;;;;;;;;;5120710;27;1565;-67
2023/12/04 13:31:15;;;;;;;;;;;;;;;;;;5138979;27;856;-66
2023/12/04 13:33:42;;;;;;;;;;;;;;;;;;5120642;27;1285;-67
2023/12/04 13:36:08;;;;;;;;;;;;;;;;;;5117340;27;1594;-67
2023/12/04 13:38:35;;;;;;;;;;;;;;;;;;5120963;27;1890;-67
2023/12/04 13:41:08;;;;;;;;;;;;;;;;;;5138848;27;859;-67
2023/12/04 13:43:52;;;;;;;;;;;;;;;;;;5138645;27;855;-67
2023/12/04 13:46:17;;;;;;;;;;;;;;;;;;5138290;27;971;-67
2023/12/04 13:48:43;;;;;;;;;;;;;;;;;;5120198;27;1044;-66
2023/12/04 13:51:09;;;;;;;;;;;;;;;;;;5138429;27;883;-66
2023/12/04 13:53:35;;;;;;;;;;;;;;;;;;5138329;27;946;-68
2023/12/04 13:56:24;;;;;;;;;;;;;;;;;;5138184;27;955;-68
2023/12/04 13:58:55;;;;;;;;;;;;;;;;;;5137729;27;1905;-67
2023/12/04 14:01:23;;;;;;;;;;;;;;;;;;5138489;27;797;-67
2023/12/04 14:03:49;;;;;;;;;;;;;;;;;;5138478;27;928;-67
2023/12/04 14:06:15;;;;;;;;;;;;;;;;;;5119804;27;1364;-67
2023/12/04 14:08:41;;;;;;;;;;;;;;;;;;5119794;27;927;-69
2023/12/04 14:11:06;;;;;;;;;;;;;;;;;;5136778;27;1242;-69
2023/12/04 14:13:35;;;;;;;;;;;;;;;;;;5134898;27;1167;-69
2023/12/04 14:16:01;;;;;;;;;;;;;;;;;;5135412;27;1183;-68
2023/12/04 14:18:27;;;;;;;;;;;;;;;;;;5135030;27;1909;-69
2023/12/04 14:20:52;;;;;;;;;;;;;;;;;;5116932;27;1125;-69
2023/12/04 14:23:18;;;;;;;;;;;;;;;;;;5138026;27;926;-70
2023/12/04 14:25:44;;;;;;;;;;;;;;;;;;5138115;27;851;-69
2023/12/04 14:28:09;;;;;;;;;;;;;;;;;;5138085;27;796;-69
2023/12/04 14:30:35;;;;;;;;;;;;;;;;;;5119593;27;1340;-69
2023/12/04 14:33:00;;;;;;;;;;;;;;;;;;5118862;27;1337;-69
2023/12/04 14:35:25;;;;;;;;;;;;;;;;;;5118991;27;1521;-70
2023/12/04 14:37:51;;;;;;;;;;;;;;;;;;5137478;27;1893;-69
2023/12/04 14:40:16;;;;;;;;;;;;;;;;;;5137716;27;811;-69
2023/12/04 14:42:43;;;;;;;;;;;;;;;;;;5137928;27;796;-70
2023/12/04 14:45:08;;;;;;;;;;;;;;;;;;5119255;27;1184;-70
2023/12/04 14:47:33;;;;;;;;;;;;;;;;;;5137644;27;820;-69
2023/12/04 14:49:59;;;;;;;;;;;;;;;;;;5119241;27;1399;-70
2023/12/04 14:52:28;;;;;;;;;;;;;;;;;;5136871;27;1085;-69
2023/12/04 15:05:58;;;;;;;;;;;;;;;;;;5137281;27;831;-70
2023/12/04 15:19:16;;;;;;;;;;;;;;;;;;5134194;27;1901;-68
2023/12/04 15:21:42;;;;;;;;;;;;;;;;;;5133653;27;1060;-69
2023/12/04 15:24:07;;;;;;;;;;;;;;;;;;5135853;27;1191;-68
2023/12/04 15:26:33;;;;;;;;;;;;;;;;;;5136989;27;935;-69
2023/12/04 15:28:58;;;;;;;;;;;;;;;;;;5137170;27;855;-70
2023/12/04 15:31:23;;;;;;;;;;;;;;;;;;5137039;27;961;-70
2023/12/04 15:33:49;;;;;;;;;;;;;;;;;;5137459;27;816;-69
2023/12/04 15:36:14;;;;;;;;;;;;;;;;;;5136818;27;1069;-69
2023/12/04 15:38:39;;;;;;;;;;;;;;;;;;5137177;27;1946;-69
2023/12/04 15:41:05;;;;;;;;;;;;;;;;;;5137103;27;844;-69
2023/12/04 15:43:30;;;;;;;;;;;;;;;;;;5136029;27;852;-69
2023/12/04 15:45:56;;;;;;;;;;;;;;;;;;5136671;27;856;-69
2023/12/04 15:48:21;;;;;;;;;;;;;;;;;;5136386;27;848;-69
2023/12/04 15:50:46;;;;;;;;;;;;;;;;;;5136371;27;919;-69
2023/12/04 15:53:12;;;;;;;;;;;;;;;;;;5117709;27;1337;-69
2023/12/04 15:55:37;;;;;;;;;;;;;;;;;;5136320;27;812;-70
2023/12/04 15:58:02;;;;;;;;;;;;;;;;;;5135725;27;1959;-70
2023/12/04 16:00:28;;;;;;;;;;;;;;;;;;5135799;27;911;-69
2023/12/04 16:02:53;;;;;;;;;;;;;;;;;;5117146;27;840;-69
2023/12/04 16:05:19;;;;;;;;;;;;;;;;;;5135615;27;899;-69
2023/12/04 16:07:45;;;;;;;;;;;;;;;;;;5135784;27;911;-68
2023/12/04 16:10:10;;;;;;;;;;;;;;;;;;5135817;27;900;-69
2023/12/04 16:12:36;;;;;;;;;;;;;;;;;;5134910;27;1215;-68
2023/12/04 16:15:03;;;;;;;;;;;;;;;;;;5096313;27;1810;-69
2023/12/04 16:17:28;;;;;;;;;;;;;;;;;;5113475;27;1961;-69
2023/12/04 16:19:57;;;;;;;;;;;;;;;;;;5095176;27;1137;-69
2023/12/04 16:22:22;;;;;;;;;;;;;;;;;;5114371;27;1203;-69
2023/12/04 16:24:47;;;;;;;;;;;;;;;;;;5134818;27;1148;-68
2023/12/04 16:27:12;;;;;;;;;;;;;;;;;;5135731;27;891;-68
2023/12/04 16:29:38;;;;;;;;;;;;;;;;;;5135644;27;875;-70
2023/12/04 16:32:04;;;;;;;;;;;;;;;;;;5136200;27;840;-69
2023/12/04 16:34:29;;;;;;;;;;;;;;;;;;5117195;27;1259;-68
2023/12/04 16:36:55;;;;;;;;;;;;;;;;;;5135182;27;1265;-68
2023/12/04 16:39:21;;;;;;;;;;;;;;;;;;5116792;27;1961;-69
2023/12/04 16:41:46;;;;;;;;;;;;;;;;;;5117030;27;1448;-68
2023/12/04 16:44:17;;;;;;;;;;;;;;;;;;5116997;27;1131;-68
2023/12/04 16:46:42;;;;;;;;;;;;;;;;;;5135257;27;860;-68
2023/12/04 16:49:08;;;;;;;;;;;;;;;;;;5135757;27;998;-69
2023/12/04 16:51:33;;;;;;;;;;;;;;;;;;5135069;27;875;-69
2023/12/04 16:53:58;;;;;;;;;;;;;;;;;;5135035;27;990;-68
2023/12/04 16:56:24;;;;;;;;;;;;;;;;;;5116465;27;1742;-69
2023/12/04 16:58:49;;;;;;;;;;;;;;;;;;5116457;28;1961;-68
2023/12/04 17:01:14;;;;;;;;;;;;;;;;;;5135361;27;911;-68
2023/12/04 17:03:40;;;;;;;;;;;;;;;;;;5135234;27;934;-68
2023/12/04 17:06:05;;;;;;;;;;;;;;;;;;5135046;27;915;-69
2023/12/04 17:08:31;;;;;;;;;;;;;;;;;;5135292;27;903;-69
2023/12/04 17:10:56;;;;;;;;;;;;;;;;;;5135402;27;883;-68
2023/12/04 17:13:21;;;;;;;;;;;;;;;;;;5135078;27;1216;-68
2023/12/04 17:15:46;;;;;;;;;;;;;;;;;;5112191;28;1056;-68
2023/12/04 17:18:12;;;;;;;;;;;;;;;;;;5130814;28;1906;-68
2023/12/04 17:20:37;;;;;;;;;;;;;;;;;;5131435;27;1147;-68
2023/12/04 17:23:03;;;;;;;;;;;;;;;;;;5131482;28;1155;-69
2023/12/04 17:25:30;;;;;;;;;;;;;;;;;;5134526;27;1333;-69